Miller Field
KVTN : now visible

Airfield :











YOU CAN JOIN US ON...

 
LOGIN :

Register | Disclaimer

   EN    FR    IT 

 









Legend :    VFR   Marginal VFR   IFR   Intensive IFR   Very Intensive IFR
Visi :
Ceiling :
>= 8 km
>= 3000ft
5 to 8 km
1000 to 3000 ft
1500m to 5 km
500 to 1000 ft
800 to 1500m
200 to 500 ft
< 800m
< 200 ft
Symbols :   Thunderstorms  Fog  Heavy snow  Heavy precipitations  Wind > 20 kt






- Airport Elevation : 2596 ft


KVTN - Miller Field

CURRENT METAR :
  • 212252Z AUTO 32019G29KT 10SM CLR 09/M03 A2984 RMK AO2 PK WND 31030/2239 SLP116 T00891028

EXPIRED METARs :
  • 212152Z AUTO 32015G27KT 10SM SCT090 08/M01 A2982 RMK AO2 PK WND 34036/2119 SLP112 T00781011
  • 212052Z AUTO 32019G36KT 10SM OVC080 08/M01 A2979 RMK AO2 PK WND 32042/2012 RAE11 SLP101 P0001 60003 T00781011 53023

TAF KVTN
Valid from the 21 at 18:00 until the 22 at 18:00 UTC


211735Z 2118/2218 33029G37KT 5SM -SHRA BR BKN012 OVC020
FM212200 33023G36KT P6SM SCT120
FM220300 30012KT P6SM SKC WS015/33045KT
FM221200 29011KT P6SM SKC
FM221500 30014G21KT P6SM SKC



MET'MAP, your aeronautical weather chart ! - Copyright ORBIFLY December 2007 - Disclaimer

ORBIFLY MET'MAP TEAM :

Programming & Development : Alexandra Zaïnal
Concept & Development : Baudouin d'Aumeries
Co-Development & Prog : Marc-Olivier Méhu
Technical & hardware support : Manuel Goepfert

Contact : metmap@orbifly.com




SOURCES & CREDITS :

   NOAA       Earth
Advisory